createdAt,value
2023-03-02T00:00:16.503Z,-7.48
2023-03-02T00:01:19.341Z,-7.50
2023-03-02T00:02:22.335Z,-7.49
2023-03-02T00:03:25.738Z,-7.51
2023-03-02T00:04:50.071Z,-7.54
2023-03-02T00:05:54.460Z,-7.53
2023-03-02T00:06:59.009Z,-7.50
2023-03-02T00:08:02.219Z,-7.49
2023-03-02T00:09:06.109Z,-7.45
2023-03-02T00:10:09.017Z,-7.45
2023-03-02T00:11:11.891Z,-7.45
2023-03-02T00:12:15.945Z,-7.47
2023-03-02T00:13:18.689Z,-7.51
2023-03-02T00:14:20.493Z,-7.56
2023-03-02T00:15:23.309Z,-7.59
2023-03-02T00:16:25.564Z,-7.63
2023-03-02T00:17:28.857Z,-7.69
2023-03-02T00:18:31.272Z,-7.72
2023-03-02T00:19:36.338Z,-7.75
2023-03-02T00:20:38.704Z,-7.76
2023-03-02T00:21:43.033Z,-7.75
2023-03-02T00:22:45.928Z,-7.74
2023-03-02T00:23:48.675Z,-7.71
2023-03-02T00:24:50.561Z,-7.67
2023-03-02T00:25:53.274Z,-7.68
2023-03-02T00:26:55.195Z,-7.67
2023-03-02T00:27:58.089Z,-7.65
2023-03-02T00:29:00.515Z,-7.64
2023-03-02T00:30:03.500Z,-7.64
2023-03-02T00:31:06.192Z,-7.63
2023-03-02T00:32:09.204Z,-7.61
2023-03-02T00:33:11.166Z,-7.59
2023-03-02T00:34:13.980Z,-7.59
2023-03-02T00:35:15.887Z,-7.61
2023-03-02T00:36:19.267Z,-7.63
2023-03-02T00:37:22.505Z,-7.64
2023-03-02T00:38:25.729Z,-7.65
2023-03-02T00:39:27.632Z,-7.68
2023-03-02T00:40:30.850Z,-7.67
2023-03-02T00:41:32.714Z,-7.69
2023-03-02T00:42:35.495Z,-7.71
2023-03-02T00:43:37.381Z,-7.70
2023-03-02T00:44:40.168Z,-7.71
2023-03-02T00:45:42.069Z,-7.72
2023-03-02T00:46:45.579Z,-7.71
2023-03-02T00:47:47.468Z,-7.70
2023-03-02T00:48:50.597Z,-7.69
2023-03-02T00:49:52.703Z,-7.69
2023-03-02T00:50:55.594Z,-7.67
2023-03-02T00:51:57.356Z,-7.66
2023-03-02T00:53:01.545Z,-7.67
2023-03-02T00:54:04.458Z,-7.66
2023-03-02T00:55:09.298Z,-7.65
2023-03-02T00:56:11.664Z,-7.63
2023-03-02T00:57:19.275Z,-7.61
2023-03-02T00:58:22.038Z,-7.60
2023-03-02T00:59:28.161Z,-7.59
2023-03-02T01:01:06.196Z,-7.59
2023-03-02T01:02:11.606Z,-7.59
2023-03-02T01:03:13.571Z,-7.58
2023-03-02T01:04:16.356Z,-7.58
2023-03-02T01:05:18.568Z,-7.57
2023-03-02T01:06:22.342Z,-7.56
2023-03-02T01:07:26.205Z,-7.59
2023-03-02T01:08:30.454Z,-7.64
2023-03-02T01:09:32.674Z,-7.69
2023-03-02T01:10:35.646Z,-7.72
2023-03-02T01:11:37.538Z,-7.77
2023-03-02T01:12:41.017Z,-7.77
2023-03-02T01:13:42.956Z,-7.78
2023-03-02T01:14:48.682Z,-7.79
2023-03-02T01:16:00.447Z,-7.80
2023-03-02T01:17:03.601Z,-7.80
2023-03-02T01:18:05.563Z,-7.82
2023-03-02T01:19:08.932Z,-7.85
2023-03-02T01:20:15.037Z,-7.88
2023-03-02T01:21:19.258Z,-7.89
2023-03-02T01:22:22.166Z,-7.90
2023-03-02T01:23:25.074Z,-7.90
2023-03-02T01:24:28.293Z,-7.89
2023-03-02T01:25:31.153Z,-7.88
2023-03-02T01:26:33.697Z,-7.88
2023-03-02T01:27:36.747Z,-7.87
2023-03-02T01:28:38.538Z,-7.88
2023-03-02T01:29:41.557Z,-7.88
2023-03-02T01:30:43.664Z,-7.88
2023-03-02T01:31:46.509Z,-7.88
2023-03-02T01:32:48.301Z,-7.87
2023-03-02T01:33:51.629Z,-7.86
2023-03-02T01:34:53.466Z,-7.87
2023-03-02T01:35:56.329Z,-7.87
2023-03-02T01:36:58.222Z,-7.89
2023-03-02T01:38:00.978Z,-7.91
2023-03-02T01:39:02.980Z,-7.93
2023-03-02T01:40:09.301Z,-7.94
2023-03-02T01:41:11.429Z,-7.96
2023-03-02T01:42:14.287Z,-7.96
2023-03-02T01:43:16.666Z,-7.95
2023-03-02T01:44:40.703Z,-7.96
2023-03-02T01:45:53.481Z,-7.96
2023-03-02T01:47:18.729Z,-7.97
2023-03-02T01:48:46.404Z,-7.98
2023-03-02T01:49:55.217Z,-7.98
2023-03-02T01:50:59.074Z,-7.99
2023-03-02T01:52:02.054Z,-8.00
2023-03-02T01:53:05.670Z,-8.01
2023-03-02T01:54:10.371Z,-8.04
2023-03-02T01:55:17.001Z,-8.04
2023-03-02T01:56:21.772Z,-8.05
2023-03-02T01:57:26.864Z,-8.05
2023-03-02T01:58:29.280Z,-8.04
2023-03-02T01:59:33.971Z,-8.04
2023-03-02T02:00:38.414Z,-8.03
2023-03-02T02:01:42.840Z,-8.01
2023-03-02T02:02:44.870Z,-8.01
2023-03-02T02:03:49.905Z,-8.00
2023-03-02T02:04:53.007Z,-7.99
2023-03-02T02:06:02.392Z,-7.97
2023-03-02T02:07:06.299Z,-7.97
2023-03-02T02:08:09.661Z,-7.96
2023-03-02T02:09:15.449Z,-7.99
2023-03-02T02:10:20.898Z,-8.05
2023-03-02T02:11:22.788Z,-8.08
2023-03-02T02:12:26.812Z,-8.11
2023-03-02T02:13:28.673Z,-8.14
2023-03-02T02:14:31.791Z,-8.12
2023-03-02T02:15:34.185Z,-8.13
2023-03-02T02:16:37.843Z,-8.12
2023-03-02T02:17:40.471Z,-8.14
2023-03-02T02:18:43.835Z,-8.12
2023-03-02T02:19:54.289Z,-8.10
2023-03-02T02:20:57.555Z,-8.09
2023-03-02T02:21:59.813Z,-8.06
2023-03-02T02:23:10.712Z,-8.09
2023-03-02T02:24:16.719Z,-8.09
2023-03-02T02:25:27.673Z,-8.08
2023-03-02T02:26:32.362Z,-8.07
2023-03-02T02:27:36.003Z,-8.09
2023-03-02T02:28:42.446Z,-8.07
2023-03-02T02:29:47.932Z,-8.09
2023-03-02T02:30:51.874Z,-8.08
2023-03-02T02:31:57.426Z,-8.06
2023-03-02T02:33:00.175Z,-8.07
2023-03-02T02:34:10.757Z,-8.05
2023-03-02T02:35:16.822Z,-8.05
2023-03-02T02:36:22.275Z,-8.06
2023-03-02T02:37:29.090Z,-8.06
2023-03-02T02:38:32.392Z,-8.07
2023-03-02T02:39:36.632Z,-8.11
2023-03-02T02:40:43.296Z,-8.16
2023-03-02T02:41:51.380Z,-8.22
2023-03-02T02:42:54.798Z,-8.26
2023-03-02T02:43:56.625Z,-8.30
2023-03-02T02:45:01.507Z,-8.30
2023-03-02T02:46:03.738Z,-8.31
2023-03-02T02:47:13.242Z,-8.28
2023-03-02T02:48:17.006Z,-8.28
2023-03-02T02:49:28.993Z,-8.26
2023-03-02T02:50:33.280Z,-8.26
2023-03-02T02:51:36.240Z,-8.26
2023-03-02T02:52:39.545Z,-8.24
2023-03-02T02:53:45.357Z,-8.25
2023-03-02T02:54:48.983Z,-8.25
2023-03-02T02:55:53.483Z,-8.25
2023-03-02T02:56:58.024Z,-8.27
2023-03-02T02:58:09.209Z,-8.29
2023-03-02T02:59:15.219Z,-8.32
2023-03-02T03:00:20.842Z,-8.33
2023-03-02T03:01:25.906Z,-8.34
2023-03-02T03:02:31.430Z,-8.32
2023-03-02T03:03:35.507Z,-8.32
2023-03-02T03:04:41.990Z,-8.31
2023-03-02T03:05:43.885Z,-8.32
2023-03-02T03:06:52.022Z,-8.31
2023-03-02T03:08:07.929Z,-8.34
2023-03-02T03:09:10.584Z,-8.40
2023-03-02T03:10:21.533Z,-8.43
2023-03-02T03:11:26.416Z,-8.44
2023-03-02T03:12:33.551Z,-8.45
2023-03-02T03:13:35.432Z,-8.43
2023-03-02T03:14:41.410Z,-8.42
2023-03-02T03:15:44.926Z,-8.41
2023-03-02T03:16:50.749Z,-8.40
2023-03-02T03:17:55.209Z,-8.40
2023-03-02T03:19:02.859Z,-8.39
2023-03-02T03:20:07.548Z,-8.37
2023-03-02T03:21:11.962Z,-8.35
2023-03-02T03:22:16.430Z,-8.32
2023-03-02T03:23:19.631Z,-8.29
2023-03-02T03:24:23.162Z,-8.29
2023-03-02T03:25:26.201Z,-8.33
2023-03-02T03:26:31.493Z,-8.36
2023-03-02T03:27:34.905Z,-8.40
2023-03-02T03:28:39.233Z,-8.44
2023-03-02T03:29:46.858Z,-8.44
2023-03-02T03:30:49.979Z,-8.45
2023-03-02T03:31:54.275Z,-8.43
2023-03-02T03:32:56.968Z,-8.45
2023-03-02T03:34:00.585Z,-8.44
2023-03-02T03:35:08.780Z,-8.45
2023-03-02T03:36:10.953Z,-8.43
2023-03-02T03:37:16.794Z,-8.42
2023-03-02T03:38:18.704Z,-8.40
2023-03-02T03:39:22.485Z,-8.39
2023-03-02T03:40:25.363Z,-8.38
2023-03-02T03:41:28.726Z,-8.37
2023-03-02T03:42:30.690Z,-8.38
2023-03-02T03:43:36.046Z,-8.38
2023-03-02T03:44:38.233Z,-8.37
2023-03-02T03:45:41.431Z,-8.39
2023-03-02T03:46:43.577Z,-8.39
2023-03-02T03:47:46.754Z,-8.39
2023-03-02T03:48:48.602Z,-8.39
2023-03-02T03:49:51.571Z,-8.40
2023-03-02T03:50:53.719Z,-8.41
2023-03-02T03:51:57.170Z,-8.42
2023-03-02T03:52:59.194Z,-8.46
2023-03-02T03:54:04.480Z,-8.52
2023-03-02T03:55:12.612Z,-8.57
2023-03-02T03:56:17.390Z,-8.62
2023-03-02T03:57:19.551Z,-8.66
2023-03-02T03:58:22.591Z,-8.70
2023-03-02T03:59:27.194Z,-8.70
2023-03-02T04:00:33.845Z,-8.73
2023-03-02T04:01:43.092Z,-8.73
2023-03-02T04:02:46.415Z,-8.74
2023-03-02T04:03:48.401Z,-8.73
2023-03-02T04:04:51.559Z,-8.74
2023-03-02T04:05:54.529Z,-8.74
2023-03-02T04:06:57.753Z,-8.74
2023-03-02T04:08:02.189Z,-8.73
2023-03-02T04:09:06.462Z,-8.72
2023-03-02T04:10:10.950Z,-8.71
2023-03-02T04:11:15.385Z,-8.73
2023-03-02T04:12:17.270Z,-8.72
2023-03-02T04:13:26.183Z,-8.74
2023-03-02T04:14:29.560Z,-8.76
2023-03-02T04:15:32.743Z,-8.78
2023-03-02T04:16:36.072Z,-8.81
2023-03-02T04:17:38.878Z,-8.81
2023-03-02T04:18:41.213Z,-8.80
2023-03-02T04:19:45.625Z,-8.80
2023-03-02T04:20:47.504Z,-8.80
2023-03-02T04:21:53.082Z,-8.82
2023-03-02T04:22:56.498Z,-8.83
2023-03-02T04:23:59.453Z,-8.82
2023-03-02T04:25:01.310Z,-8.82
2023-03-02T04:26:05.208Z,-8.81
2023-03-02T04:27:07.033Z,-8.80
2023-03-02T04:28:11.122Z,-8.79
2023-03-02T04:29:15.048Z,-8.78
2023-03-02T04:30:23.545Z,-8.78
2023-03-02T04:31:25.901Z,-8.77
2023-03-02T04:32:28.839Z,-8.75
2023-03-02T04:33:31.302Z,-8.74
2023-03-02T04:34:34.627Z,-8.73
2023-03-02T04:35:37.034Z,-8.70
2023-03-02T04:36:40.984Z,-8.71
2023-03-02T04:37:47.055Z,-8.71
2023-03-02T04:38:50.317Z,-8.71
2023-03-02T04:39:52.901Z,-8.72
2023-03-02T04:40:55.775Z,-8.73
2023-03-02T04:41:57.606Z,-8.72
2023-03-02T04:43:00.369Z,-8.72
2023-03-02T04:44:02.282Z,-8.71
2023-03-02T04:45:05.795Z,-8.70
2023-03-02T04:46:09.826Z,-8.71
2023-03-02T04:47:12.781Z,-8.70
2023-03-02T04:48:14.981Z,-8.72
2023-03-02T04:49:18.848Z,-8.72
2023-03-02T04:50:20.889Z,-8.74
2023-03-02T04:51:26.159Z,-8.73
2023-03-02T04:52:27.985Z,-8.75
2023-03-02T04:53:30.802Z,-8.79
2023-03-02T04:54:32.984Z,-8.81
2023-03-02T04:55:36.225Z,-8.81
2023-03-02T04:56:38.414Z,-8.80
2023-03-02T04:57:41.137Z,-8.80
2023-03-02T04:58:42.934Z,-8.78
2023-03-02T04:59:45.777Z,-8.78
2023-03-02T05:00:47.590Z,-8.77
2023-03-02T05:01:51.766Z,-8.78
2023-03-02T05:02:53.661Z,-8.76
2023-03-02T05:03:56.378Z,-8.77
2023-03-02T05:04:58.282Z,-8.76
2023-03-02T05:06:02.407Z,-8.75
2023-03-02T05:07:04.195Z,-8.75
2023-03-02T05:08:06.969Z,-8.74
2023-03-02T05:09:08.843Z,-8.72
2023-03-02T05:10:12.475Z,-8.70
2023-03-02T05:11:22.373Z,-8.69
2023-03-02T05:12:25.453Z,-8.70
2023-03-02T05:13:27.559Z,-8.71
2023-03-02T05:14:31.943Z,-8.70
2023-03-02T05:15:37.264Z,-8.71
2023-03-02T05:16:42.107Z,-8.72
2023-03-02T05:17:45.378Z,-8.72
2023-03-02T05:18:49.068Z,-8.72
2023-03-02T05:19:50.835Z,-8.70
2023-03-02T05:20:54.859Z,-8.71
2023-03-02T05:21:57.573Z,-8.71
2023-03-02T05:23:02.190Z,-8.71
2023-03-02T05:24:04.580Z,-8.70
2023-03-02T05:25:08.328Z,-8.69
2023-03-02T05:26:10.665Z,-8.65
2023-03-02T05:27:13.437Z,-8.64
2023-03-02T05:28:15.557Z,-8.61
2023-03-02T05:29:18.312Z,-8.58
2023-03-02T05:30:20.641Z,-8.58
2023-03-02T05:31:25.420Z,-8.55
2023-03-02T05:32:28.061Z,-8.54
2023-03-02T05:33:32.391Z,-8.53
2023-03-02T05:34:34.239Z,-8.52
2023-03-02T05:35:37.469Z,-8.52
2023-03-02T05:36:39.381Z,-8.51
2023-03-02T05:37:44.589Z,-8.50
2023-03-02T05:38:47.359Z,-8.51
2023-03-02T05:39:49.161Z,-8.52
2023-03-02T05:40:52.316Z,-8.53
2023-03-02T05:41:54.058Z,-8.54
2023-03-02T05:42:56.955Z,-8.54
2023-03-02T05:43:59.125Z,-8.53
2023-03-02T05:45:01.900Z,-8.54
2023-03-02T05:46:03.954Z,-8.53
2023-03-02T05:47:07.183Z,-8.52
2023-03-02T05:48:10.420Z,-8.50
2023-03-02T05:49:14.607Z,-8.48
2023-03-02T05:50:16.664Z,-8.47
2023-03-02T05:51:19.400Z,-8.44
2023-03-02T05:52:21.165Z,-8.38
2023-03-02T05:53:24.111Z,-8.33
2023-03-02T05:54:26.037Z,-8.25
2023-03-02T05:55:29.009Z,-8.12
2023-03-02T05:56:31.130Z,-7.95
2023-03-02T05:57:34.492Z,-7.77
2023-03-02T05:58:36.357Z,-7.59
2023-03-02T05:59:39.231Z,-7.38
2023-03-02T06:00:41.206Z,-7.24
2023-03-02T06:01:44.001Z,-7.15
2023-03-02T06:02:46.020Z,-7.05
2023-03-02T06:03:51.268Z,-6.91
2023-03-02T06:04:54.424Z,-6.76
2023-03-02T06:05:57.221Z,-6.58
2023-03-02T06:06:58.993Z,-6.38
2023-03-02T06:08:01.778Z,-6.19
2023-03-02T06:09:04.071Z,-5.97
2023-03-02T06:10:08.002Z,-5.72
2023-03-02T06:11:10.092Z,-5.49
2023-03-02T06:12:12.897Z,-5.28
2023-03-02T06:13:15.667Z,-5.06
2023-03-02T06:14:18.648Z,-4.85
2023-03-02T06:15:20.846Z,-4.65
2023-03-02T06:16:23.659Z,-4.46
2023-03-02T06:17:25.579Z,-4.27
2023-03-02T06:18:28.423Z,-4.09
2023-03-02T06:19:30.319Z,-3.89
2023-03-02T06:20:34.426Z,-3.67
2023-03-02T06:21:36.521Z,-3.44
2023-03-02T06:22:41.167Z,-3.32
2023-03-02T06:23:43.954Z,-3.27
2023-03-02T06:24:45.884Z,-3.17
2023-03-02T06:25:49.087Z,-2.99
2023-03-02T06:26:52.864Z,-2.80
2023-03-02T06:27:55.708Z,-2.67
2023-03-02T06:28:58.873Z,-2.63
2023-03-02T06:30:00.895Z,-2.60
2023-03-02T06:31:04.001Z,-2.54
2023-03-02T06:32:06.092Z,-2.45
2023-03-02T06:33:08.880Z,-2.29
2023-03-02T06:34:10.964Z,-2.14
2023-03-02T06:35:14.283Z,-2.05
2023-03-02T06:36:17.597Z,-1.94
2023-03-02T06:37:20.677Z,-1.84
2023-03-02T06:38:22.703Z,-1.76
2023-03-02T06:39:25.486Z,-1.70
2023-03-02T06:40:27.641Z,-1.62
2023-03-02T06:41:30.679Z,-1.48
2023-03-02T06:42:32.537Z,-1.35
2023-03-02T06:43:35.718Z,-1.19
2023-03-02T06:44:37.480Z,-1.08
2023-03-02T06:45:40.396Z,-0.93
2023-03-02T06:46:43.085Z,-0.73
2023-03-02T06:47:45.808Z,-0.59
2023-03-02T06:48:47.580Z,-0.48
2023-03-02T06:49:50.431Z,-0.37
2023-03-02T06:50:52.572Z,-0.22
2023-03-02T06:51:56.628Z,-0.04
2023-03-02T06:52:58.517Z,0.10
2023-03-02T06:54:01.333Z,0.24
2023-03-02T06:55:03.222Z,0.40
2023-03-02T06:56:07.107Z,0.54
2023-03-02T06:57:08.894Z,0.66
2023-03-02T06:58:13.145Z,0.75
2023-03-02T06:59:15.017Z,0.81
2023-03-02T07:00:26.420Z,0.81
2023-03-02T07:01:33.052Z,0.75
2023-03-02T07:02:36.271Z,0.71
2023-03-02T07:03:38.082Z,0.69
2023-03-02T07:04:41.026Z,0.72
2023-03-02T07:05:45.745Z,0.82
2023-03-02T07:06:49.063Z,0.93
2023-03-02T07:07:52.533Z,1.03
2023-03-02T07:08:55.294Z,1.18
2023-03-02T07:09:57.104Z,1.34
2023-03-02T07:10:59.873Z,1.52
2023-03-02T07:12:02.030Z,1.68
2023-03-02T07:13:04.782Z,1.85
2023-03-02T07:14:06.616Z,2.00
2023-03-02T07:15:13.980Z,2.08
2023-03-02T07:16:15.990Z,2.22
2023-03-02T07:17:18.885Z,2.35
2023-03-02T07:18:20.739Z,2.51
2023-03-02T07:19:23.451Z,2.67
2023-03-02T07:20:26.668Z,2.81
2023-03-02T07:21:28.574Z,2.90
2023-03-02T07:22:31.648Z,2.96
2023-03-02T07:23:35.904Z,2.96
2023-03-02T07:24:37.741Z,2.94
2023-03-02T07:25:40.513Z,2.92
2023-03-02T07:26:42.298Z,2.87
2023-03-02T07:27:45.238Z,2.79
2023-03-02T07:28:47.029Z,2.72
2023-03-02T07:29:49.807Z,2.59
2023-03-02T07:30:51.689Z,2.48
2023-03-02T07:31:57.225Z,2.38
2023-03-02T07:33:00.144Z,2.28
2023-03-02T07:34:02.367Z,2.21
2023-03-02T07:35:05.447Z,2.17
2023-03-02T07:36:08.387Z,2.13
2023-03-02T07:37:11.170Z,2.12
2023-03-02T07:38:12.996Z,2.13
2023-03-02T07:39:17.099Z,2.14
2023-03-02T07:40:19.336Z,2.19
2023-03-02T07:41:22.762Z,2.27
2023-03-02T07:42:24.509Z,2.37
2023-03-02T07:43:35.886Z,2.51
2023-03-02T07:44:37.625Z,2.65
2023-03-02T07:45:40.345Z,2.80
2023-03-02T07:46:42.225Z,2.97
2023-03-02T07:47:44.975Z,3.11
2023-03-02T07:48:46.879Z,3.20
2023-03-02T07:49:49.756Z,3.28
2023-03-02T07:50:51.515Z,3.36
2023-03-02T07:51:54.269Z,3.43
2023-03-02T07:52:56.917Z,3.51
2023-03-02T07:54:02.849Z,3.60
2023-03-02T07:55:07.564Z,3.65
2023-03-02T07:56:10.806Z,3.65
2023-03-02T07:57:16.055Z,3.61
2023-03-02T07:58:17.844Z,3.57
2023-03-02T07:59:21.166Z,3.55
2023-03-02T08:00:23.437Z,3.53
2023-03-02T08:01:26.305Z,3.54
2023-03-02T08:02:28.455Z,3.56
2023-03-02T08:03:31.234Z,3.57
2023-03-02T08:04:35.819Z,3.58
2023-03-02T08:05:38.752Z,3.57
2023-03-02T08:06:42.453Z,3.53
2023-03-02T08:07:47.423Z,3.44
2023-03-02T08:08:49.651Z,3.38
2023-03-02T08:09:52.518Z,3.37
2023-03-02T08:10:55.867Z,3.36
2023-03-02T08:11:58.841Z,3.32
2023-03-02T08:13:00.812Z,3.29
2023-03-02T08:14:04.414Z,3.28
2023-03-02T08:15:07.195Z,3.25
2023-03-02T08:16:12.415Z,3.23
2023-03-02T08:17:15.194Z,3.21
2023-03-02T08:18:17.131Z,3.20
2023-03-02T08:19:20.547Z,3.17
2023-03-02T08:20:22.432Z,3.15
2023-03-02T08:21:26.410Z,3.13
2023-03-02T08:22:29.130Z,3.10
2023-03-02T08:23:30.913Z,3.10
2023-03-02T08:24:33.979Z,3.10
2023-03-02T08:25:35.893Z,3.11
2023-03-02T08:26:40.337Z,3.13
2023-03-02T08:27:43.782Z,3.15
2023-03-02T08:28:46.765Z,3.20
2023-03-02T08:29:48.614Z,3.25
2023-03-02T08:30:56.733Z,3.33
2023-03-02T08:31:59.096Z,3.39
2023-03-02T08:33:05.910Z,3.47
2023-03-02T08:34:09.832Z,3.51
2023-03-02T08:35:12.812Z,3.57
2023-03-02T08:36:17.417Z,3.63
2023-03-02T08:37:38.801Z,3.69
2023-03-02T08:38:41.100Z,3.74
2023-03-02T08:39:43.870Z,3.78
2023-03-02T08:40:45.617Z,3.80
2023-03-02T08:41:51.048Z,3.83
2023-03-02T08:42:56.999Z,3.87
2023-03-02T08:43:59.754Z,3.89
2023-03-02T08:45:01.577Z,3.90
2023-03-02T08:46:04.796Z,3.93
2023-03-02T08:47:06.669Z,3.96
2023-03-02T08:48:09.908Z,4.00
2023-03-02T08:49:11.721Z,4.04
2023-03-02T08:50:14.451Z,4.10
2023-03-02T08:51:19.831Z,4.14
2023-03-02T08:52:22.599Z,4.19
2023-03-02T08:53:25.111Z,4.26
2023-03-02T08:54:28.641Z,4.30
2023-03-02T08:55:30.489Z,4.36
2023-03-02T08:56:35.546Z,4.41
2023-03-02T08:57:41.604Z,4.43
2023-03-02T08:58:44.385Z,4.47
2023-03-02T08:59:46.124Z,4.51
2023-03-02T09:00:49.222Z,4.55
2023-03-02T09:01:51.996Z,4.61
2023-03-02T09:02:54.089Z,4.64
2023-03-02T09:03:57.552Z,4.69
2023-03-02T09:05:00.381Z,4.77
2023-03-02T09:06:03.188Z,4.83
2023-03-02T09:07:06.167Z,4.87
2023-03-02T09:08:08.053Z,4.93
2023-03-02T09:09:11.954Z,4.97
2023-03-02T09:10:14.804Z,4.99
2023-03-02T09:11:18.061Z,5.02
2023-03-02T09:12:20.811Z,5.05
2023-03-02T09:13:24.054Z,5.10
2023-03-02T09:14:27.294Z,5.15
2023-03-02T09:15:29.107Z,5.20
2023-03-02T09:16:52.648Z,5.24
2023-03-02T09:17:54.607Z,5.29
2023-03-02T09:18:57.400Z,5.32
2023-03-02T09:20:00.687Z,5.35
2023-03-02T09:21:03.542Z,5.38
2023-03-02T09:22:05.288Z,5.42
2023-03-02T09:23:08.057Z,5.44
2023-03-02T09:24:10.163Z,5.47
2023-03-02T09:25:12.988Z,5.49
2023-03-02T09:26:14.773Z,5.55
2023-03-02T09:27:17.692Z,5.58
2023-03-02T09:28:21.580Z,5.64
2023-03-02T09:29:25.944Z,5.69
2023-03-02T09:30:28.612Z,5.75
2023-03-02T09:31:31.793Z,5.81
2023-03-02T09:32:34.947Z,5.87
2023-03-02T09:33:57.148Z,5.96
2023-03-02T09:35:00.286Z,6.02
2023-03-02T09:36:05.857Z,6.10
2023-03-02T09:37:08.938Z,6.14
2023-03-02T09:38:12.829Z,6.17
2023-03-02T09:39:15.606Z,6.18
2023-03-02T09:40:20.005Z,6.18
2023-03-02T09:41:50.712Z,6.20
2023-03-02T09:43:11.980Z,6.23
2023-03-02T09:44:35.985Z,6.23
2023-03-02T09:46:06.051Z,6.20
2023-03-02T09:47:14.149Z,6.18
2023-03-02T09:48:24.475Z,6.22
2023-03-02T09:49:33.177Z,6.24
2023-03-02T09:50:38.091Z,6.26
2023-03-02T09:51:45.084Z,6.29
2023-03-02T09:52:52.351Z,6.36
2023-03-02T09:54:03.294Z,6.44
2023-03-02T09:55:14.757Z,6.48
2023-03-02T09:56:19.154Z,6.53
2023-03-02T09:57:22.570Z,6.58
2023-03-02T09:58:27.744Z,6.63
2023-03-02T09:59:33.737Z,6.65
2023-03-02T10:00:40.403Z,6.67
2023-03-02T10:01:47.012Z,6.67
2023-03-02T10:02:50.817Z,6.64
2023-03-02T10:03:57.353Z,6.63
2023-03-02T10:05:03.548Z,6.60
2023-03-02T10:06:05.689Z,6.57
2023-03-02T10:07:13.100Z,6.53
2023-03-02T10:08:17.463Z,6.52
2023-03-02T10:09:20.209Z,6.51
2023-03-02T10:10:26.524Z,6.55
2023-03-02T10:11:36.630Z,6.61
2023-03-02T10:12:46.917Z,6.64
2023-03-02T10:13:52.394Z,6.64
2023-03-02T10:14:57.389Z,6.65
2023-03-02T10:16:15.952Z,6.68
2023-03-02T10:17:39.183Z,6.72
2023-03-02T10:18:45.458Z,6.73
2023-03-02T10:19:53.476Z,6.76
2023-03-02T10:21:01.157Z,6.80
2023-03-02T10:22:14.387Z,6.83
2023-03-02T10:23:29.260Z,6.86
2023-03-02T10:24:35.261Z,6.89
2023-03-02T10:25:43.641Z,6.91
2023-03-02T10:26:48.240Z,6.96
2023-03-02T10:27:51.665Z,7.00
2023-03-02T10:29:00.059Z,7.03
2023-03-02T10:30:06.477Z,7.05
2023-03-02T10:31:15.223Z,7.06
2023-03-02T10:32:21.783Z,7.08
2023-03-02T10:33:23.968Z,7.10
2023-03-02T10:34:29.964Z,7.14
2023-03-02T10:35:33.048Z,7.15
2023-03-02T10:36:39.983Z,7.17
2023-03-02T10:37:42.877Z,7.19
2023-03-02T10:38:45.514Z,7.18
2023-03-02T10:39:48.539Z,7.17
2023-03-02T10:40:56.978Z,7.17
2023-03-02T10:42:03.076Z,7.16
2023-03-02T10:43:06.388Z,7.17
2023-03-02T10:44:15.562Z,7.18
2023-03-02T10:45:24.749Z,7.18
2023-03-02T10:46:41.063Z,7.21
2023-03-02T10:47:43.133Z,7.24
2023-03-02T10:48:51.101Z,7.27
2023-03-02T10:49:54.642Z,7.31
2023-03-02T10:50:58.295Z,7.33
2023-03-02T10:52:02.720Z,7.35
2023-03-02T10:53:08.618Z,7.40
2023-03-02T10:54:11.709Z,7.44
2023-03-02T10:55:16.852Z,7.47
2023-03-02T10:56:20.855Z,7.49
2023-03-02T10:57:34.181Z,7.52
2023-03-02T10:58:37.037Z,7.58
2023-03-02T10:59:44.680Z,7.64
2023-03-02T11:00:57.022Z,7.67
2023-03-02T11:02:02.520Z,7.71
2023-03-02T11:03:18.732Z,7.74
2023-03-02T11:04:20.707Z,7.76
2023-03-02T11:05:29.035Z,7.79
2023-03-02T11:06:32.143Z,7.82
2023-03-02T11:07:34.083Z,7.87
2023-03-02T11:08:36.936Z,7.92
2023-03-02T11:09:38.928Z,8.00
2023-03-02T11:10:43.125Z,8.08
2023-03-02T11:11:49.961Z,8.20
2023-03-02T11:12:53.865Z,8.30
2023-03-02T11:13:57.233Z,8.39
2023-03-02T11:15:18.903Z,8.51
2023-03-02T11:16:28.417Z,8.59
2023-03-02T11:17:34.441Z,8.65
2023-03-02T11:18:39.721Z,8.75
2023-03-02T11:19:42.198Z,8.86
2023-03-02T11:20:48.645Z,8.96
2023-03-02T11:21:55.268Z,9.04
2023-03-02T11:23:04.039Z,9.12
2023-03-02T11:24:12.258Z,9.15
2023-03-02T11:25:23.781Z,9.17
2023-03-02T11:26:29.241Z,9.15
2023-03-02T11:27:33.939Z,9.17
2023-03-02T11:28:45.611Z,9.18
2023-03-02T11:29:51.360Z,9.17
2023-03-02T11:30:56.592Z,9.18
2023-03-02T11:32:05.449Z,9.15
2023-03-02T11:33:15.294Z,9.09
2023-03-02T11:34:26.122Z,9.04
2023-03-02T11:35:32.862Z,8.99
2023-03-02T11:36:44.951Z,8.95
2023-03-02T11:37:49.967Z,8.90
2023-03-02T11:38:54.958Z,8.89
2023-03-02T11:40:17.163Z,8.92
2023-03-02T11:41:29.697Z,8.88
2023-03-02T11:42:35.524Z,8.89
2023-03-02T11:43:37.445Z,8.88
2023-03-02T11:44:40.291Z,8.88
2023-03-02T11:45:45.372Z,8.87
2023-03-02T11:46:49.706Z,8.86
2023-03-02T11:48:02.429Z,8.93
2023-03-02T11:49:12.688Z,8.99
2023-03-02T11:50:16.595Z,9.04
2023-03-02T11:51:21.469Z,9.06
2023-03-02T11:52:26.832Z,9.05
2023-03-02T11:53:34.502Z,9.04
2023-03-02T11:54:39.789Z,9.03
2023-03-02T11:55:45.771Z,9.08
2023-03-02T11:56:47.640Z,9.12
2023-03-02T11:57:52.167Z,9.19
2023-03-02T11:58:56.707Z,9.26
2023-03-02T12:00:00.658Z,9.29
2023-03-02T12:01:04.555Z,9.34
2023-03-02T12:02:11.797Z,9.41
2023-03-02T12:03:21.517Z,9.49
2023-03-02T12:04:32.292Z,9.59
2023-03-02T12:05:37.041Z,9.62
2023-03-02T12:06:40.175Z,9.62
2023-03-02T12:08:03.022Z,9.62
2023-03-02T12:09:30.769Z,9.66
2023-03-02T12:10:38.230Z,9.72
2023-03-02T12:11:41.957Z,9.78
2023-03-02T12:12:48.409Z,9.85
2023-03-02T12:14:00.717Z,9.92
2023-03-02T12:15:03.844Z,9.90
2023-03-02T12:16:20.503Z,10.02
2023-03-02T12:17:31.439Z,10.11
2023-03-02T12:18:46.113Z,10.23
2023-03-02T12:19:51.273Z,10.31
2023-03-02T12:21:00.534Z,10.35
2023-03-02T12:22:07.360Z,10.38
2023-03-02T12:23:21.114Z,10.38
2023-03-02T12:24:26.092Z,10.48
2023-03-02T12:25:38.013Z,10.66
2023-03-02T12:26:40.770Z,10.80
2023-03-02T12:27:42.699Z,10.92
2023-03-02T12:28:58.995Z,10.98
2023-03-02T12:30:24.275Z,11.03
2023-03-02T12:31:28.197Z,11.10
2023-03-02T12:32:31.410Z,11.22
2023-03-02T12:33:41.756Z,11.37
2023-03-02T12:34:46.556Z,11.47
2023-03-02T12:35:51.896Z,11.57
2023-03-02T12:36:57.597Z,11.67
2023-03-02T12:38:01.742Z,11.78
2023-03-02T12:39:15.714Z,11.92
2023-03-02T12:40:25.561Z,12.03
2023-03-02T12:41:43.357Z,12.11
2023-03-02T12:42:51.657Z,12.18
2023-03-02T12:44:03.165Z,12.31
2023-03-02T12:45:14.305Z,12.41
2023-03-02T12:46:29.755Z,12.52
2023-03-02T12:47:33.099Z,12.61
2023-03-02T12:49:03.353Z,12.69
2023-03-02T12:50:07.597Z,12.74
2023-03-02T12:51:18.395Z,12.84
2023-03-02T12:52:31.360Z,12.93
2023-03-02T12:53:33.930Z,13.04
2023-03-02T12:54:36.757Z,13.11
2023-03-02T12:55:38.932Z,13.16
2023-03-02T12:56:41.783Z,13.22
2023-03-02T12:57:49.046Z,13.33
2023-03-02T12:58:51.214Z,13.37
2023-03-02T12:59:55.023Z,13.30
2023-03-02T13:00:59.847Z,13.29
2023-03-02T13:02:15.537Z,13.34
2023-03-02T13:03:18.643Z,13.45
2023-03-02T13:04:22.226Z,13.61
2023-03-02T13:05:26.425Z,13.71
2023-03-02T13:06:31.611Z,13.72
2023-03-02T13:07:38.515Z,13.74
2023-03-02T13:08:42.749Z,13.73
2023-03-02T13:09:56.108Z,13.79
2023-03-02T13:11:01.814Z,13.83
2023-03-02T13:12:04.843Z,13.85
2023-03-02T13:13:17.519Z,13.86
2023-03-02T13:14:21.903Z,13.87
2023-03-02T13:15:24.688Z,13.94
2023-03-02T13:16:29.780Z,14.03
2023-03-02T13:17:33.323Z,14.09
2023-03-02T13:18:37.189Z,14.24
2023-03-02T13:19:39.950Z,14.36
2023-03-02T13:20:42.971Z,14.43
2023-03-02T13:21:46.125Z,14.49
2023-03-02T13:22:49.044Z,14.52
2023-03-02T13:23:51.800Z,14.55
2023-03-02T13:25:00.207Z,14.66
2023-03-02T13:26:04.717Z,14.67
2023-03-02T13:27:14.411Z,14.69
2023-03-02T13:28:27.426Z,14.78
2023-03-02T13:29:31.773Z,14.85
2023-03-02T13:30:37.060Z,14.94
2023-03-02T13:31:39.038Z,15.00
2023-03-02T13:32:43.168Z,15.00
2023-03-02T13:33:47.528Z,14.99
2023-03-02T13:34:51.884Z,14.98
2023-03-02T13:35:55.981Z,15.01
2023-03-02T13:36:59.405Z,15.03
2023-03-02T13:38:05.546Z,15.08
2023-03-02T13:39:16.271Z,15.07
2023-03-02T13:40:35.003Z,15.20
2023-03-02T13:41:40.638Z,15.23
2023-03-02T13:42:42.605Z,15.13
2023-03-02T13:43:45.780Z,14.98
2023-03-02T13:44:47.548Z,14.93
2023-03-02T13:45:55.751Z,14.95
2023-03-02T13:46:59.510Z,14.98
2023-03-02T13:48:15.235Z,15.06
2023-03-02T13:49:27.692Z,15.08
2023-03-02T13:50:31.421Z,15.07
2023-03-02T13:51:37.093Z,15.02
2023-03-02T13:52:41.529Z,14.96
2023-03-02T13:53:51.867Z,14.98
2023-03-02T13:54:54.753Z,15.01
2023-03-02T13:56:00.191Z,15.07
2023-03-02T13:57:04.182Z,15.08
2023-03-02T13:58:09.725Z,15.19
2023-03-02T13:59:14.088Z,15.31
2023-03-02T14:00:18.670Z,15.38
2023-03-02T14:01:21.435Z,15.36
2023-03-02T14:02:25.613Z,15.37
2023-03-02T14:03:30.215Z,15.38
2023-03-02T14:04:33.055Z,15.38
2023-03-02T14:05:35.905Z,15.36
2023-03-02T14:06:38.757Z,15.32